Wednesday, November 14, 2018, 8:29 PM CST
Back to Local

KUGN, Chicago/waukegan Regional

Location: Waukegan, IL, United States Lat: 42.417
Local Time: 8:29 PM CST ( 2:29 GMT) Lon: -87.867
Time Zone: US/Central Elev: 728 ft

Show me the last for .
Show Coded

Time T Td Feel RH Dir Speed Gust Alt SLP Vis Weather Sky Remarks
2018-11-14 18:55 23 18 - 80 - Calm - 30.42 30.48 10 CLR None
2018-11-14 17:55 24 18 - 77 - Calm - 30.46 30.52 10 CLR 6-hr Min Temp (6pm): 24.1°F
6-hr Max Temp (6pm): 30.9°F
2018-11-14 16:55 25 19 21 77 60° 3 - 30.45 30.51 10 CLR None
2018-11-14 15:55 30 19 25 63 110° 5 - 30.47 30.53 10 FEW025 None
2018-11-14 14:55 31 19 27 60 110° 3 - 30.49 30.54 10 FEW025 None
2018-11-14 13:55 31 20 26 63 60° 5 - 30.50 30.55 10 FEW030 None
2018-11-14 12:55 30 19 24 63 Variable 6 - 30.52 30.57 10 CLR None
2018-11-14 12:25 30 18 25 60 170° 5 - 30.54 - 10 FEW024 None
2018-11-14 11:55 31 17 27 55 190° 3 - 30.56 30.61 10 FEW040 6-hr Min Temp (12pm): 16.0°F
6-hr Max Temp (12pm): 30.9°F
2018-11-14 10:55 28 16 24 60 Variable 3 - 30.58 30.63 10 FEW040 None
2018-11-14 09:55 27 15 23 60 Variable 3 - 30.57 30.62 10 CLR None
2018-11-14 08:55 23 12 17 62 330° 5 - 30.57 30.63 10 CLR None
2018-11-14 07:55 20 9 13 61 350° 5 - 30.56 30.62 10 CLR None
2018-11-14 06:55 16 7 7 66 350° 6 - 30.53 30.60 10 CLR None
2018-11-14 05:55 16 8 10 70 330° 3 - 30.52 30.59 10 CLR 6-hr Min Temp (6am): 15.1°F
6-hr Max Temp (6am): 19.0°F
2018-11-14 04:55 16 8 10 70 320° 3 - 30.52 30.58 10 CLR None
2018-11-14 03:55 16 9 - 73 - Calm - 30.52 30.57 10 CLR None
2018-11-14 02:55 17 8 12 67 320° 3 - 30.51 30.57 10 CLR None
2018-11-14 01:55 17 9 12 69 310° 3 - 30.50 30.56 10 CLR None
2018-11-14 00:55 17 10 - 73 - Calm - 30.50 30.55 10 CLR None
2018-11-13 23:55 18 10 13 70 310° 3 - 30.48 30.54 10 CLR 6-hr Min Temp (12am): 17.1°F
6-hr Max Temp (12am): 19.9°F
24-hr Min Temp (12am): 17.1°F
24-hr Max Temp (12am): 28.9°F
2018-11-13 22:55 18 10 13 70 290° 3 - 30.47 30.53 10 CLR None
2018-11-13 21:55 20 10 15 64 270° 3 - 30.46 30.52 10 CLR None
2018-11-13 20:55 20 11 15 67 250° 3 - 30.45 30.51 10 CLR None

Support USWX by starting your Amazon purchase here.